createdAt,value
2023-02-05T00:01:05.310Z,7.55
2023-02-05T00:04:20.693Z,3.78
2023-02-05T00:07:26.003Z,2.38
2023-02-05T00:10:34.705Z,1.95
2023-02-05T00:13:41.376Z,4.40
2023-02-05T00:16:47.152Z,4.30
2023-02-05T00:19:53.888Z,5.75
2023-02-05T00:22:59.710Z,4.68
2023-02-05T00:26:10.080Z,4.75
2023-02-05T00:29:17.731Z,3.92
2023-02-05T00:32:26.549Z,6.72
2023-02-05T00:35:32.617Z,2.42
2023-02-05T00:38:38.659Z,1.23
2023-02-05T00:41:48.672Z,2.65
2023-02-05T00:44:55.665Z,4.22
2023-02-05T00:48:03.738Z,3.17
2023-02-05T00:51:10.730Z,2.67
2023-02-05T00:54:23.806Z,1.73
2023-02-05T00:57:32.049Z,2.13
2023-02-05T01:00:41.764Z,3.38
2023-02-05T01:03:48.453Z,2.60
2023-02-05T01:06:54.387Z,3.22
2023-02-05T01:10:04.451Z,3.65
2023-02-05T01:13:17.539Z,2.85
2023-02-05T01:16:27.336Z,3.10
2023-02-05T01:19:33.432Z,5.72
2023-02-05T01:22:39.474Z,3.33
2023-02-05T01:25:48.284Z,4.85
2023-02-05T01:28:57.456Z,4.95
2023-02-05T01:32:04.488Z,4.70
2023-02-05T01:35:12.327Z,3.13
2023-02-05T01:38:19.812Z,2.20
2023-02-05T01:41:25.200Z,3.53
2023-02-05T01:44:37.748Z,2.10
2023-02-05T01:47:48.212Z,4.85
2023-02-05T01:50:57.124Z,4.18
2023-02-05T01:54:02.707Z,4.07
2023-02-05T01:57:10.157Z,5.40
2023-02-05T02:00:21.798Z,5.40
2023-02-05T02:03:29.662Z,3.50
2023-02-05T02:06:36.552Z,4.47
2023-02-05T02:09:43.221Z,4.35
2023-02-05T02:12:51.218Z,3.47
2023-02-05T02:16:00.254Z,3.45
2023-02-05T02:19:07.667Z,2.92
2023-02-05T02:22:28.431Z,4.40
2023-02-05T02:25:51.405Z,3.83
2023-02-05T02:29:02.950Z,3.15
2023-02-05T02:32:13.067Z,2.72
2023-02-05T02:35:22.146Z,3.85
2023-02-05T02:38:30.344Z,4.35
2023-02-05T02:41:40.925Z,4.68
2023-02-05T02:44:51.944Z,5.43
2023-02-05T02:47:59.189Z,6.22
2023-02-05T02:51:06.193Z,4.80
2023-02-05T02:54:19.595Z,3.00
2023-02-05T02:57:30.424Z,2.85
2023-02-05T03:00:41.702Z,2.75
2023-02-05T03:03:49.569Z,4.80
2023-02-05T03:06:57.650Z,3.90
2023-02-05T03:10:06.874Z,4.00
2023-02-05T03:13:13.327Z,4.05
2023-02-05T03:16:26.932Z,6.45
2023-02-05T03:19:33.172Z,3.55
2023-02-05T03:22:40.675Z,4.05
2023-02-05T03:25:51.671Z,3.33
2023-02-05T03:28:57.704Z,4.55
2023-02-05T03:32:12.624Z,2.75
2023-02-05T03:35:26.231Z,5.30
2023-02-05T03:38:36.161Z,2.88
2023-02-05T03:42:03.216Z,5.18
2023-02-05T03:45:19.434Z,6.82
2023-02-05T03:48:32.627Z,6.85
2023-02-05T03:51:42.907Z,9.35
2023-02-05T03:54:51.800Z,9.60
2023-02-05T03:58:01.864Z,9.15
2023-02-05T04:01:11.082Z,8.73
2023-02-05T04:04:20.301Z,4.57
2023-02-05T04:07:25.421Z,5.43
2023-02-05T04:10:31.407Z,4.70
2023-02-05T04:13:38.926Z,5.38
2023-02-05T04:16:46.079Z,4.10
2023-02-05T04:19:55.677Z,5.60
2023-02-05T04:23:06.402Z,3.67
2023-02-05T04:26:11.914Z,5.55
2023-02-05T04:29:19.848Z,3.40
2023-02-05T04:32:29.828Z,3.55
2023-02-05T04:35:38.429Z,3.55
2023-02-05T04:38:43.783Z,5.15
2023-02-05T04:41:49.512Z,4.88
2023-02-05T04:44:54.934Z,4.05
2023-02-05T04:48:02.417Z,5.60
2023-02-05T04:51:14.416Z,3.17
2023-02-05T04:54:23.390Z,3.22
2023-02-05T04:57:30.088Z,4.85
2023-02-05T05:00:52.930Z,4.22
2023-02-05T05:03:58.355Z,2.13
2023-02-05T05:07:06.935Z,3.38
2023-02-05T05:10:12.614Z,4.47
2023-02-05T05:13:19.657Z,3.53
2023-02-05T05:16:27.304Z,3.35
2023-02-05T05:19:34.182Z,5.13
2023-02-05T05:22:42.634Z,4.40
2023-02-05T05:25:50.690Z,4.38
2023-02-05T05:28:58.508Z,3.47
2023-02-05T05:32:04.551Z,5.35
2023-02-05T05:35:10.164Z,4.18
2023-02-05T05:38:18.423Z,5.97
2023-02-05T05:41:37.290Z,4.78
2023-02-05T05:44:43.447Z,4.03
2023-02-05T05:47:48.857Z,1.92
2023-02-05T05:50:58.546Z,4.50
2023-02-05T05:54:06.684Z,3.60
2023-02-05T05:57:12.137Z,4.03
2023-02-05T06:00:18.199Z,5.43
2023-02-05T06:03:24.302Z,3.72
2023-02-05T06:06:29.405Z,3.22
2023-02-05T06:09:42.872Z,4.38
2023-02-05T06:12:50.569Z,4.30
2023-02-05T06:15:57.960Z,2.83
2023-02-05T06:19:05.202Z,2.58
2023-02-05T06:22:13.337Z,3.97
2023-02-05T06:25:25.478Z,4.72
2023-02-05T06:28:30.979Z,5.03
2023-02-05T06:31:40.743Z,4.68
2023-02-05T06:34:47.676Z,2.75
2023-02-05T06:37:53.344Z,3.50
2023-02-05T06:41:03.762Z,3.97
2023-02-05T06:44:08.909Z,4.53
2023-02-05T06:47:14.572Z,3.60
2023-02-05T06:50:20.229Z,4.93
2023-02-05T06:53:28.096Z,2.65
2023-02-05T06:56:36.620Z,4.03
2023-02-05T06:59:43.804Z,3.38
2023-02-05T07:02:49.378Z,5.22
2023-02-05T07:05:58.675Z,4.07
2023-02-05T07:09:05.677Z,5.70
2023-02-05T07:12:14.799Z,3.35
2023-02-05T07:15:19.781Z,4.43
2023-02-05T07:18:26.457Z,3.47
2023-02-05T07:21:33.901Z,6.40
2023-02-05T07:24:41.731Z,3.97
2023-02-05T07:27:51.453Z,4.80
2023-02-05T07:31:01.062Z,2.92
2023-02-05T07:34:09.927Z,4.40
2023-02-05T07:37:15.807Z,5.97
2023-02-05T07:40:22.943Z,4.22
2023-02-05T07:43:33.465Z,3.78
2023-02-05T07:46:41.091Z,4.00
2023-02-05T07:49:47.230Z,5.88
2023-02-05T07:52:54.325Z,6.25
2023-02-05T07:55:59.705Z,5.18
2023-02-05T07:59:10.319Z,5.85
2023-02-05T08:02:19.435Z,4.18
2023-02-05T08:05:24.663Z,5.25
2023-02-05T08:08:31.445Z,6.43
2023-02-05T08:11:37.965Z,6.10
2023-02-05T08:14:46.671Z,5.78
2023-02-05T08:17:51.785Z,6.82
2023-02-05T08:20:57.737Z,5.53
2023-02-05T08:24:04.952Z,6.13
2023-02-05T08:27:10.548Z,6.97
2023-02-05T08:30:21.988Z,4.88
2023-02-05T08:33:29.405Z,6.10
2023-02-05T08:36:35.828Z,5.97
2023-02-05T08:39:41.700Z,6.72
2023-02-05T08:42:47.651Z,5.90
2023-02-05T08:45:57.302Z,8.50
2023-02-05T08:49:02.630Z,4.10
2023-02-05T08:52:08.208Z,5.13
2023-02-05T08:55:13.085Z,5.22
2023-02-05T08:58:22.545Z,4.55
2023-02-05T09:01:30.384Z,4.63
2023-02-05T09:04:35.782Z,5.72
2023-02-05T09:07:42.671Z,5.97
2023-02-05T09:10:48.423Z,6.85
2023-02-05T13:02:45.489Z,3.55
2023-02-05T13:13:18.668Z,3.75
2023-02-05T13:16:25.354Z,2.63
2023-02-05T13:19:36.121Z,3.70
2023-02-05T13:23:04.489Z,3.75
2023-02-05T13:26:22.868Z,4.03
2023-02-05T13:29:32.258Z,3.22
2023-02-05T13:32:38.681Z,3.17
2023-02-05T13:36:06.240Z,6.20
2023-02-05T13:39:24.363Z,3.00
2023-02-05T13:43:01.025Z,2.70
2023-02-05T13:46:22.777Z,1.38
2023-02-05T13:49:45.852Z,3.63
2023-02-05T13:53:06.296Z,3.03
2023-02-05T13:56:31.754Z,2.13
2023-02-05T13:59:38.618Z,1.90
2023-02-05T14:02:46.646Z,2.78
2023-02-05T14:05:52.312Z,2.42
2023-02-05T14:09:03.371Z,2.38
2023-02-05T14:12:14.145Z,3.10
2023-02-05T14:15:37.973Z,6.53
2023-02-05T14:18:54.663Z,2.37
2023-02-05T14:22:05.636Z,5.07
2023-02-05T14:25:25.598Z,1.80
2023-02-05T14:28:42.522Z,4.90
2023-02-05T14:31:49.700Z,5.15
2023-02-05T14:35:02.704Z,5.00
2023-02-05T14:38:21.215Z,2.40
2023-02-05T14:41:33.552Z,3.88
2023-02-05T14:44:46.262Z,4.75
2023-02-05T14:47:51.636Z,3.00
2023-02-05T14:51:07.328Z,4.40
2023-02-05T14:54:22.112Z,3.83
2023-02-05T14:57:29.217Z,3.53
2023-02-05T15:00:40.997Z,4.53
2023-02-05T15:03:48.908Z,6.28
2023-02-05T15:06:56.653Z,4.13
2023-02-05T15:10:03.833Z,5.35
2023-02-05T15:13:13.784Z,3.85
2023-02-05T15:16:38.558Z,5.03
2023-02-05T15:19:48.862Z,4.95
2023-02-05T15:22:57.530Z,4.82
2023-02-05T15:26:05.324Z,5.05
2023-02-05T15:29:15.480Z,5.32
2023-02-05T15:32:22.222Z,6.35
2023-02-05T15:35:32.115Z,3.33
2023-02-05T15:38:43.220Z,3.95
2023-02-05T15:41:48.942Z,3.47
2023-02-05T15:44:56.908Z,5.57
2023-02-05T15:48:04.004Z,8.48
2023-02-05T15:51:17.343Z,4.88
2023-02-05T15:54:24.594Z,3.92
2023-02-05T15:57:34.435Z,5.00
2023-02-05T16:00:41.420Z,5.88
2023-02-05T16:03:48.527Z,3.67
2023-02-05T16:06:59.456Z,6.88
2023-02-05T16:10:05.775Z,5.43
2023-02-05T16:13:17.349Z,7.60
2023-02-05T16:16:25.865Z,4.73
2023-02-05T16:19:32.938Z,5.50
2023-02-05T16:22:44.028Z,4.15
2023-02-05T16:25:50.310Z,5.10
2023-02-05T16:29:02.639Z,3.05
2023-02-05T16:32:09.012Z,5.38
2023-02-05T16:35:19.619Z,4.60
2023-02-05T16:38:28.756Z,6.47
2023-02-05T16:41:38.375Z,5.68
2023-02-05T16:44:45.399Z,6.18
2023-02-05T16:48:05.462Z,5.07
2023-02-05T16:51:31.728Z,7.78
2023-02-05T16:54:42.515Z,8.43
2023-02-05T16:57:48.495Z,8.02
2023-02-05T17:00:59.568Z,8.85
2023-02-05T17:04:04.456Z,9.70
2023-02-05T17:07:20.488Z,10.77
2023-02-05T17:10:28.564Z,9.57
2023-02-05T17:13:41.771Z,10.43
2023-02-05T17:16:56.458Z,8.98
2023-02-05T17:20:07.470Z,10.40
2023-02-05T17:23:12.997Z,10.63
2023-02-05T17:26:21.675Z,11.98
2023-02-05T17:29:28.274Z,12.55
2023-02-05T17:32:35.137Z,7.63
2023-02-05T17:35:40.315Z,9.07
2023-02-05T17:38:45.693Z,10.15
2023-02-05T17:42:08.708Z,8.95
2023-02-05T17:45:17.058Z,6.78
2023-02-05T17:48:22.288Z,10.63
2023-02-05T17:51:27.958Z,7.47
2023-02-05T17:54:35.563Z,7.65
2023-02-05T17:57:44.718Z,11.65
2023-02-05T18:00:51.583Z,12.52
2023-02-05T18:03:56.914Z,9.32
2023-02-05T18:07:01.859Z,10.23
2023-02-05T18:10:08.603Z,10.15
2023-02-05T18:13:19.746Z,15.27
2023-02-05T18:16:25.404Z,11.68
2023-02-05T18:19:30.594Z,14.02
2023-02-05T18:22:35.760Z,8.85
2023-02-05T18:25:41.388Z,11.48
2023-02-05T18:28:50.078Z,10.82
2023-02-05T18:31:56.296Z,11.75
2023-02-05T18:35:02.815Z,9.88
2023-02-05T18:38:07.882Z,14.43
2023-02-05T18:41:14.560Z,11.73
2023-02-05T18:44:22.991Z,14.00
2023-02-05T18:47:28.143Z,15.30
2023-02-05T18:50:33.039Z,11.40
2023-02-05T18:53:39.315Z,14.32
2023-02-05T18:56:44.118Z,13.52
2023-02-05T18:59:51.937Z,11.98
2023-02-05T19:02:57.622Z,10.10
2023-02-05T19:06:05.770Z,11.80
2023-02-05T19:09:12.110Z,10.35
2023-02-05T19:12:19.074Z,10.98
2023-02-05T19:15:26.474Z,11.50
2023-02-05T19:18:31.990Z,11.43
2023-02-05T19:21:37.112Z,11.07
2023-02-05T19:24:43.478Z,17.55
2023-02-05T19:27:48.283Z,7.43
2023-02-05T19:30:57.729Z,13.40
2023-02-05T19:34:03.285Z,11.38
2023-02-05T19:37:11.786Z,13.95
2023-02-05T19:40:18.306Z,16.77
2023-02-05T19:43:23.519Z,15.23
2023-02-05T19:46:35.152Z,13.63
2023-02-05T19:49:40.461Z,12.70
2023-02-05T19:52:45.703Z,14.43
2023-02-05T19:55:51.269Z,12.73
2023-02-05T19:58:57.258Z,13.20
2023-02-05T20:02:05.058Z,11.80
2023-02-05T20:05:12.401Z,14.57
2023-02-05T20:08:17.667Z,13.13
2023-02-05T20:11:24.084Z,17.60
2023-02-05T20:14:29.589Z,14.68
2023-02-05T20:17:43.871Z,15.38
2023-02-05T20:20:49.205Z,14.52
2023-02-05T20:23:54.080Z,13.40
2023-02-05T20:26:59.324Z,16.10
2023-02-05T20:30:16.493Z,16.08
2023-02-05T20:33:24.381Z,14.27
2023-02-05T20:36:30.466Z,19.60
2023-02-05T20:39:39.805Z,14.02
2023-02-05T20:42:45.921Z,14.25
2023-02-05T20:45:51.041Z,17.40
2023-02-05T20:48:58.692Z,15.52
2023-02-05T20:52:03.891Z,14.75
2023-02-05T20:55:09.453Z,14.45
2023-02-05T20:58:17.802Z,18.48
2023-02-05T21:01:23.930Z,15.60
2023-02-05T21:04:33.000Z,17.50
2023-02-05T21:07:39.100Z,17.98
2023-02-05T21:10:45.701Z,16.77
2023-02-05T21:13:54.964Z,19.02
2023-02-05T21:17:00.141Z,17.33
2023-02-05T21:20:07.677Z,16.58
2023-02-05T21:23:12.787Z,17.83
2023-02-05T21:26:21.760Z,14.10
2023-02-05T21:29:26.893Z,17.35
2023-02-05T21:32:33.216Z,16.63
2023-02-05T21:35:43.778Z,11.88
2023-02-05T21:38:49.999Z,13.48
2023-02-05T21:41:55.541Z,15.38
2023-02-05T21:45:00.286Z,12.27
2023-02-05T21:48:06.794Z,17.33
2023-02-05T21:51:17.117Z,17.30
2023-02-05T21:54:25.789Z,12.35
2023-02-05T21:57:30.730Z,11.18
2023-02-05T22:00:43.242Z,12.10
2023-02-05T22:03:50.877Z,13.13
2023-02-05T22:07:01.049Z,12.15
2023-02-05T22:10:07.541Z,9.27
2023-02-05T22:13:13.677Z,15.45
2023-02-05T22:16:19.395Z,11.95
2023-02-05T22:19:25.975Z,9.32
2023-02-05T22:22:33.317Z,9.73
2023-02-05T22:25:38.794Z,10.68
2023-02-05T22:28:43.655Z,9.43
2023-02-05T22:31:52.024Z,12.70
2023-02-05T22:34:56.988Z,9.20
2023-02-05T22:38:06.215Z,10.82
2023-02-05T22:41:12.552Z,11.93
2023-02-05T22:44:17.775Z,12.27
2023-02-05T22:47:22.526Z,12.13
2023-02-05T22:50:29.039Z,10.25
2023-02-05T22:53:36.988Z,11.20
2023-02-05T22:56:42.354Z,12.32
2023-02-05T22:59:47.161Z,11.18
2023-02-05T23:02:52.283Z,14.75
2023-02-05T23:05:57.136Z,13.32
2023-02-05T23:09:08.659Z,12.70
2023-02-05T23:12:14.759Z,10.57
2023-02-05T23:15:20.140Z,10.85
2023-02-05T23:18:24.967Z,12.60
2023-02-05T23:21:31.219Z,8.68
2023-02-05T23:24:39.975Z,11.00
2023-02-05T23:27:45.308Z,9.43
2023-02-05T23:30:50.234Z,10.38
2023-02-05T23:33:57.188Z,7.32
2023-02-05T23:37:01.947Z,12.77
2023-02-05T23:40:11.789Z,10.80
2023-02-05T23:43:20.363Z,12.10
2023-02-05T23:46:27.939Z,10.45
2023-02-05T23:49:32.732Z,12.40
2023-02-05T23:52:37.857Z,9.80
2023-02-05T23:55:45.855Z,8.55
2023-02-05T23:58:52.406Z,13.50
